createdAt,value
2023-06-20T00:03:52.241Z,17.48
2023-06-20T00:07:56.612Z,17.61
2023-06-20T00:11:59.346Z,17.40
2023-06-20T00:16:02.234Z,17.33
2023-06-20T00:20:06.905Z,17.53
2023-06-20T00:24:11.209Z,17.82
2023-06-20T00:28:17.388Z,17.42
2023-06-20T00:32:20.617Z,17.34
2023-06-20T00:36:26.881Z,17.73
2023-06-20T00:40:31.275Z,17.53
2023-06-20T00:44:33.923Z,17.36
2023-06-20T00:48:36.832Z,17.33
2023-06-20T00:52:39.607Z,17.36
2023-06-20T00:56:44.245Z,17.89
2023-06-20T01:00:46.995Z,17.91
2023-06-20T01:04:51.065Z,17.94
2023-06-20T01:08:59.738Z,17.27
2023-06-20T01:13:11.333Z,17.48
2023-06-20T01:17:19.161Z,17.35
2023-06-20T01:21:25.208Z,17.02
2023-06-20T01:25:37.877Z,17.26
2023-06-20T01:29:42.801Z,16.98
2023-06-20T01:33:51.808Z,17.46
2023-06-20T01:37:59.561Z,17.11
2023-06-20T01:42:05.478Z,16.88
2023-06-20T01:46:09.063Z,17.14
2023-06-20T01:50:13.189Z,17.04
2023-06-20T01:54:17.002Z,16.60
2023-06-20T01:58:21.914Z,16.63
2023-06-20T02:02:25.465Z,16.84
2023-06-20T02:06:29.227Z,16.68
2023-06-20T02:10:32.478Z,15.90
2023-06-20T02:14:36.928Z,16.47
2023-06-20T02:18:39.972Z,16.41
2023-06-20T02:22:45.218Z,16.35
2023-06-20T02:26:48.653Z,16.98
2023-06-20T02:30:54.653Z,17.24
2023-06-20T02:34:58.230Z,16.69
2023-06-20T02:39:01.094Z,16.47
2023-06-20T02:43:04.489Z,16.86
2023-06-20T02:47:16.919Z,17.15
2023-06-20T02:51:25.176Z,16.46
2023-06-20T02:55:31.560Z,16.27
2023-06-20T02:59:35.449Z,16.19
2023-06-20T03:03:44.465Z,16.33
2023-06-20T03:07:48.573Z,16.57
2023-06-20T03:11:51.897Z,16.10
2023-06-20T03:15:56.212Z,16.35
2023-06-20T03:20:00.787Z,16.40
2023-06-20T03:24:03.564Z,15.33
2023-06-20T03:28:06.861Z,15.58
2023-06-20T03:32:09.525Z,16.24
2023-06-20T03:36:14.389Z,15.74
2023-06-20T03:40:17.182Z,15.94
2023-06-20T03:44:20.402Z,15.96
2023-06-20T03:48:23.243Z,16.08
2023-06-20T03:52:27.614Z,16.11
2023-06-20T03:56:30.639Z,16.34
2023-06-20T04:00:33.720Z,15.89
2023-06-20T04:04:36.571Z,16.12
2023-06-20T04:08:40.760Z,15.61
2023-06-20T04:12:44.518Z,15.77
2023-06-20T04:16:49.228Z,16.19
2023-06-20T04:20:52.208Z,15.78
2023-06-20T04:24:56.566Z,15.97
2023-06-20T04:28:59.745Z,15.59
2023-06-20T04:33:02.378Z,16.10
2023-06-20T04:37:05.617Z,16.12
2023-06-20T04:41:10.034Z,15.99
2023-06-20T04:45:12.821Z,16.16
2023-06-20T04:49:15.970Z,16.24
2023-06-20T04:53:20.357Z,16.68
2023-06-20T04:57:25.961Z,16.72
2023-06-20T05:01:30.726Z,16.89
2023-06-20T05:05:33.619Z,16.81
2023-06-20T05:09:36.418Z,17.14
2023-06-20T05:13:41.160Z,17.22
2023-06-20T05:17:44.037Z,17.49
2023-06-20T05:21:46.986Z,17.74
2023-06-20T05:25:49.772Z,17.98
2023-06-20T05:29:53.890Z,23.27
2023-06-20T05:33:56.998Z,22.59
2023-06-20T05:38:01.506Z,27.20
2023-06-20T05:42:04.521Z,23.97
2023-06-20T05:46:08.604Z,23.89
2023-06-20T05:50:11.676Z,23.95
2023-06-20T05:54:14.589Z,24.42
2023-06-20T05:58:17.400Z,25.97
2023-06-20T06:02:23.115Z,25.57
2023-06-20T06:06:27.036Z,23.89
2023-06-20T06:10:30.274Z,24.82
2023-06-20T06:14:32.955Z,27.86
2023-06-20T06:18:37.108Z,25.08
2023-06-20T06:22:40.442Z,27.00
2023-06-20T06:26:43.312Z,28.70
2023-06-20T06:30:46.263Z,25.51
2023-06-20T06:34:52.382Z,28.52
2023-06-20T06:38:56.193Z,25.38
2023-06-20T06:42:59.094Z,25.03
2023-06-20T06:47:03.535Z,26.88
2023-06-20T06:51:08.510Z,25.95
2023-06-20T06:55:11.214Z,26.14
2023-06-20T06:59:13.970Z,26.34
2023-06-20T07:03:17.429Z,22.57
2023-06-20T07:07:21.545Z,25.23
2023-06-20T07:11:25.613Z,26.82
2023-06-20T07:15:28.784Z,26.26
2023-06-20T07:19:31.914Z,25.43
2023-06-20T07:23:36.057Z,27.48
2023-06-20T07:27:39.107Z,24.46
2023-06-20T07:31:41.865Z,24.60
2023-06-20T07:35:44.688Z,26.30
2023-06-20T07:39:49.314Z,26.81
2023-06-20T07:43:53.920Z,26.15
2023-06-20T07:47:56.674Z,24.52
2023-06-20T07:51:59.461Z,25.80
2023-06-20T07:56:03.699Z,23.63
2023-06-20T08:00:10.762Z,24.78
2023-06-20T08:04:13.511Z,24.89
2023-06-20T08:08:16.251Z,24.57
2023-06-20T08:12:20.590Z,25.31
2023-06-20T08:16:23.385Z,23.99
2023-06-20T08:20:26.884Z,24.29
2023-06-20T08:24:30.234Z,24.02
2023-06-20T08:28:34.344Z,24.44
2023-06-20T08:32:38.080Z,24.03
2023-06-20T08:36:40.931Z,24.10
2023-06-20T08:40:43.613Z,24.87
2023-06-20T08:44:57.827Z,25.41
2023-06-20T08:49:02.291Z,25.09
2023-06-20T08:53:07.421Z,25.81
2023-06-20T08:57:10.161Z,25.61
2023-06-20T09:01:14.384Z,25.43
2023-06-20T09:05:17.313Z,24.81
2023-06-20T09:09:20.619Z,25.24
2023-06-20T09:13:29.709Z,25.09
2023-06-20T09:17:33.867Z,25.89
2023-06-20T09:21:38.257Z,26.89
2023-06-20T09:25:41.859Z,26.79
2023-06-20T09:29:52.345Z,26.49
2023-06-20T09:33:56.989Z,27.29
2023-06-20T09:38:04.297Z,26.75
2023-06-20T09:42:13.767Z,27.22
2023-06-20T09:46:16.586Z,28.62
2023-06-20T09:50:21.327Z,28.67
2023-06-20T09:54:30.090Z,27.62
2023-06-20T09:58:33.868Z,28.86
2023-06-20T10:02:37.041Z,28.47
2023-06-20T10:06:41.282Z,28.55
2023-06-20T10:10:44.231Z,28.24
2023-06-20T10:14:47.104Z,29.50
2023-06-20T10:18:50.233Z,28.62
2023-06-20T10:22:59.105Z,29.75
2023-06-20T10:27:02.600Z,29.36
2023-06-20T10:31:05.544Z,30.11
2023-06-20T10:35:10.400Z,29.59
2023-06-20T10:39:17.087Z,29.41
2023-06-20T10:43:20.339Z,29.80
2023-06-20T10:47:23.190Z,30.00
2023-06-20T10:51:27.221Z,29.32
2023-06-20T10:55:31.812Z,30.12
2023-06-20T10:59:35.046Z,30.18
2023-06-20T11:03:38.034Z,30.40
2023-06-20T11:07:57.889Z,29.30
2023-06-20T11:12:02.390Z,29.66
2023-06-20T11:16:05.241Z,30.04
2023-06-20T11:20:09.229Z,29.44
2023-06-20T11:24:12.473Z,30.05
2023-06-20T11:28:17.719Z,30.32
2023-06-20T11:32:20.567Z,30.42
2023-06-20T11:36:23.439Z,30.48
2023-06-20T11:40:26.470Z,30.44
2023-06-20T11:44:31.680Z,30.77
2023-06-20T11:48:34.851Z,29.99
2023-06-20T11:52:38.232Z,30.13
2023-06-20T11:56:41.533Z,30.63
2023-06-20T12:00:48.293Z,30.38
2023-06-20T12:04:58.007Z,30.13
2023-06-20T12:09:01.985Z,31.16
2023-06-20T12:13:05.961Z,31.38
2023-06-20T12:17:10.201Z,30.24
2023-06-20T12:21:12.992Z,30.76
2023-06-20T12:25:16.135Z,31.59
2023-06-20T12:29:19.491Z,31.18
2023-06-20T12:33:23.547Z,31.22
2023-06-20T12:37:29.033Z,30.17
2023-06-20T12:41:35.081Z,31.38
2023-06-20T12:45:38.347Z,30.86
2023-06-20T12:49:43.050Z,31.13
2023-06-20T12:53:46.107Z,30.29
2023-06-20T12:57:49.122Z,30.13
2023-06-20T13:01:52.097Z,30.72
2023-06-20T13:05:56.340Z,31.46
2023-06-20T13:09:59.073Z,32.18
2023-06-20T13:14:01.930Z,31.42
2023-06-20T13:18:06.059Z,31.83
2023-06-20T13:22:10.383Z,31.80
2023-06-20T13:26:13.181Z,30.82
2023-06-20T13:30:16.965Z,30.49
2023-06-20T13:34:20.096Z,30.67
2023-06-20T13:38:24.188Z,30.66
2023-06-20T13:42:27.220Z,30.41
2023-06-20T13:46:29.972Z,30.54
2023-06-20T13:50:33.910Z,30.51
2023-06-20T13:54:38.466Z,30.50
2023-06-20T13:58:41.314Z,30.90
2023-06-20T14:02:45.273Z,30.27
2023-06-20T14:06:48.135Z,29.55
2023-06-20T14:10:52.276Z,30.93
2023-06-20T14:14:54.951Z,31.05
2023-06-20T14:18:59.318Z,31.66
2023-06-20T14:23:02.486Z,30.48
2023-06-20T14:27:07.762Z,30.04
2023-06-20T14:31:10.511Z,29.67
2023-06-20T14:35:13.288Z,29.76
2023-06-20T14:39:16.114Z,29.73
2023-06-20T14:43:20.663Z,29.52
2023-06-20T14:47:23.616Z,28.92
2023-06-20T14:51:26.586Z,28.44
2023-06-20T14:55:29.378Z,29.60
2023-06-20T14:59:33.969Z,29.37
2023-06-20T15:03:40.390Z,29.67
2023-06-20T15:07:43.427Z,29.56
2023-06-20T15:11:46.449Z,29.75
2023-06-20T15:15:50.807Z,29.17
2023-06-20T15:19:53.920Z,28.86
2023-06-20T15:23:57.237Z,29.07
2023-06-20T15:28:00.498Z,29.01
2023-06-20T15:32:05.058Z,28.84
2023-06-20T15:36:09.192Z,28.32
2023-06-20T15:40:13.270Z,28.55
2023-06-20T15:44:16.897Z,28.27
2023-06-20T15:48:25.228Z,28.29
2023-06-20T15:52:28.151Z,28.38
2023-06-20T15:56:31.591Z,28.33
2023-06-20T16:00:34.555Z,28.26
2023-06-20T16:04:38.842Z,28.08
2023-06-20T16:08:42.592Z,27.93
2023-06-20T16:12:45.772Z,27.59
2023-06-20T16:16:48.960Z,27.65
2023-06-20T16:20:53.299Z,27.73
2023-06-20T16:24:56.252Z,27.46
2023-06-20T16:29:00.129Z,27.42
2023-06-20T16:33:04.154Z,26.82
2023-06-20T16:37:10.172Z,26.65
2023-06-20T16:41:13.813Z,26.63
2023-06-20T16:45:16.985Z,26.71
2023-06-20T16:49:20.536Z,26.60
2023-06-20T16:53:25.007Z,26.36
2023-06-20T16:57:28.012Z,26.35
2023-06-20T17:01:30.997Z,26.35
2023-06-20T17:05:34.129Z,26.18
2023-06-20T17:09:38.570Z,26.00
2023-06-20T17:13:42.186Z,26.03
2023-06-20T17:17:45.442Z,25.92
2023-06-20T17:21:58.276Z,25.94
2023-06-20T17:26:07.996Z,25.65
2023-06-20T17:30:11.459Z,25.67
2023-06-20T17:34:14.532Z,25.45
2023-06-20T17:38:17.779Z,25.26
2023-06-20T17:42:22.730Z,25.28
2023-06-20T17:46:25.651Z,25.18
2023-06-20T17:50:29.120Z,24.96
2023-06-20T17:54:31.930Z,24.81
2023-06-20T17:58:36.574Z,24.88
2023-06-20T18:02:39.654Z,24.79
2023-06-20T18:06:43.528Z,24.86
2023-06-20T18:10:46.977Z,24.90
2023-06-20T18:14:51.587Z,24.85
2023-06-20T18:18:54.848Z,24.71
2023-06-20T18:22:57.752Z,24.49
2023-06-20T18:27:01.491Z,23.97
2023-06-20T18:31:06.202Z,23.71
2023-06-20T18:35:10.235Z,23.92
2023-06-20T18:39:13.046Z,23.71
2023-06-20T18:43:16.095Z,23.05
2023-06-20T18:47:20.756Z,23.14
2023-06-20T18:51:24.047Z,23.15
2023-06-20T18:55:26.832Z,23.16
2023-06-20T18:59:29.861Z,22.87
2023-06-20T19:03:35.745Z,22.58
2023-06-20T19:07:44.021Z,22.35
2023-06-20T19:11:47.140Z,22.43
2023-06-20T19:15:51.489Z,22.18
2023-06-20T19:19:56.079Z,22.45
2023-06-20T19:23:58.925Z,22.00
2023-06-20T19:28:02.038Z,22.47
2023-06-20T19:32:05.823Z,22.63
2023-06-20T19:36:10.585Z,21.81
2023-06-20T19:40:16.145Z,22.16
2023-06-20T19:44:21.556Z,21.94
2023-06-20T19:48:25.186Z,21.17
2023-06-20T19:52:29.455Z,21.10
2023-06-20T19:56:33.867Z,21.42
2023-06-20T20:00:36.905Z,20.89
2023-06-20T20:04:39.999Z,21.13
2023-06-20T20:08:44.396Z,21.14
2023-06-20T20:12:47.276Z,20.81
2023-06-20T20:16:50.747Z,21.25
2023-06-20T20:20:54.001Z,21.16
2023-06-20T20:25:10.970Z,20.46
2023-06-20T20:29:16.137Z,20.85
2023-06-20T20:33:19.255Z,20.21
2023-06-20T20:37:23.400Z,19.44
2023-06-20T20:41:27.995Z,19.75
2023-06-20T20:45:33.242Z,19.90
2023-06-20T20:49:36.691Z,19.36
2023-06-20T20:53:39.812Z,19.41
2023-06-20T20:57:44.932Z,19.27
2023-06-20T21:01:48.092Z,19.13
2023-06-20T21:05:51.993Z,19.16
2023-06-20T21:09:55.022Z,19.66
2023-06-20T21:13:59.483Z,18.89
2023-06-20T21:18:02.514Z,19.31
2023-06-20T21:22:06.250Z,19.06
2023-06-20T21:26:09.440Z,17.91
2023-06-20T21:30:15.106Z,18.53
2023-06-20T21:34:18.086Z,18.47
2023-06-20T21:38:21.001Z,18.74
2023-06-20T21:42:24.323Z,17.87
2023-06-20T21:46:30.425Z,17.61
2023-06-20T21:50:34.418Z,17.53
2023-06-20T21:54:37.327Z,18.09
2023-06-20T21:58:40.820Z,18.19
2023-06-20T22:02:45.535Z,17.58
2023-06-20T22:06:48.338Z,17.34
2023-06-20T22:10:59.670Z,17.72
2023-06-20T22:15:03.598Z,17.72
2023-06-20T22:19:08.136Z,18.09
2023-06-20T22:23:12.095Z,17.62
2023-06-20T22:27:15.066Z,17.40
2023-06-20T22:31:17.711Z,17.27
2023-06-20T22:35:22.163Z,17.55
2023-06-20T22:39:25.209Z,16.95
2023-06-20T22:43:28.188Z,16.78
2023-06-20T22:47:30.953Z,17.85
2023-06-20T22:51:36.636Z,17.88
2023-06-20T22:55:39.617Z,18.44
2023-06-20T22:59:42.704Z,17.47
2023-06-20T23:03:45.399Z,17.07
2023-06-20T23:07:49.773Z,17.12
2023-06-20T23:11:52.842Z,17.62
2023-06-20T23:15:56.063Z,16.98
2023-06-20T23:19:59.378Z,16.37
2023-06-20T23:24:05.022Z,16.05
2023-06-20T23:28:10.725Z,16.49
2023-06-20T23:32:14.280Z,17.07
2023-06-20T23:36:17.545Z,16.66
2023-06-20T23:40:24.184Z,15.89
2023-06-20T23:44:27.072Z,15.63
2023-06-20T23:48:31.561Z,15.58
2023-06-20T23:52:34.471Z,15.66
2023-06-20T23:56:39.362Z,15.97
